Time;durP1;ratioP1;P1;durP2;ratioP2;P2;SDS_P1;SDS_P2;PMS_P1;PMS_P2;Temp;Humidity;BMP_temperature;BMP_pressure;BME280_temperature;BME280_humidity;BME280_pressure;Samples;Min_cycle;Max_cycle;Signal;HPM_P1;HPM_P2
2023/04/08 00:01:05;;;;;;;0.30;0.30;;;6.70;99.90;;;;;;5030521;28;20253;-85
2023/04/08 00:03:31;;;;;;;0.30;0.30;;;6.70;99.90;;;;;;5030223;28;20189;-85
2023/04/08 00:05:56;;;;;;;0.30;0.30;;;6.70;99.90;;;;;;5044649;28;20167;-86
2023/04/08 00:08:22;;;;;;;0.30;0.30;;;6.80;99.90;;;;;;5027998;28;20176;-86
2023/04/08 00:10:48;;;;;;;0.30;0.30;;;6.80;99.90;;;;;;5049359;28;20531;-86
2023/04/08 00:13:13;;;;;;;0.30;0.30;;;6.80;99.90;;;;;;5027317;28;20161;-86
2023/04/08 00:15:40;;;;;;;0.40;0.40;;;6.80;99.90;;;;;;5040828;28;20540;-86
2023/04/08 00:18:06;;;;;;;0.30;0.30;;;6.80;99.90;;;;;;5029217;28;20185;-86
2023/04/08 00:20:32;;;;;;;0.30;0.30;;;6.80;99.90;;;;;;5048587;28;20427;-86
2023/04/08 00:22:58;;;;;;;0.30;0.30;;;6.80;99.90;;;;;;5042868;28;20486;-86
2023/04/08 00:25:23;;;;;;;0.30;0.30;;;6.80;99.90;;;;;;5051284;28;20148;-86
2023/04/08 00:27:49;;;;;;;0.30;0.30;;;6.70;99.90;;;;;;5029231;28;20326;-84
2023/04/08 00:30:15;;;;;;;0.30;0.30;;;6.70;99.90;;;;;;5029410;28;20164;-86
2023/04/08 00:32:40;;;;;;;0.30;0.30;;;6.70;99.90;;;;;;5031530;28;20443;-86
2023/04/08 00:35:06;;;;;;;0.30;0.30;;;6.80;99.90;;;;;;5047872;28;20608;-86
2023/04/08 00:37:32;;;;;;;0.30;0.30;;;6.70;99.90;;;;;;5044451;28;20189;-86
2023/04/08 00:39:57;;;;;;;0.30;0.30;;;6.70;99.90;;;;;;5025573;28;21032;-86
2023/04/08 00:42:23;;;;;;;0.30;0.30;;;6.70;99.90;;;;;;5030447;28;20608;-85
2023/04/08 00:44:49;;;;;;;0.30;0.30;;;6.70;99.90;;;;;;5027425;28;20564;-86
2023/04/08 00:47:15;;;;;;;0.30;0.30;;;6.80;99.90;;;;;;5029067;28;20160;-85
2023/04/08 00:49:42;;;;;;;0.30;0.30;;;6.70;99.90;;;;;;5028676;28;20161;-86
2023/04/08 00:52:07;;;;;;;0.30;0.30;;;6.80;99.90;;;;;;5047287;28;20442;-86
2023/04/08 00:54:35;;;;;;;0.30;0.30;;;6.70;99.90;;;;;;5043419;28;20944;-87
2023/04/08 00:57:01;;;;;;;0.30;0.30;;;6.80;99.90;;;;;;5046381;28;20164;-86
2023/04/08 00:59:29;;;;;;;0.30;0.30;;;6.80;99.90;;;;;;5047376;28;20496;-86
2023/04/08 01:02:05;;;;;;;0.30;0.30;;;6.80;99.90;;;;;;5025147;28;20384;-87
2023/04/08 01:05:04;;;;;;;0.30;0.30;;;6.80;99.90;;;;;;5043411;28;20426;-86
2023/04/08 01:07:36;;;;;;;0.30;0.30;;;6.70;99.90;;;;;;5025845;28;20452;-87
2023/04/08 01:10:23;;;;;;;0.30;0.30;;;6.70;99.90;;;;;;5024944;28;20452;-86
2023/04/08 01:12:53;;;;;;;0.30;0.30;;;6.80;99.90;;;;;;5027656;28;20510;-86
2023/04/08 01:15:20;;;;;;;0.33;0.33;;;6.80;99.90;;;;;;5043962;28;20415;-85
2023/04/08 01:17:49;;;;;;;0.40;0.40;;;6.70;99.90;;;;;;5027936;28;20485;-86
2023/04/08 01:20:16;;;;;;;0.30;0.30;;;6.70;99.90;;;;;;5029701;28;20485;-85
2023/04/08 01:23:00;;;;;;;0.30;0.30;;;6.70;99.90;;;;;;5024945;28;20547;-86
2023/04/08 01:25:31;;;;;;;0.30;0.30;;;6.70;99.90;;;;;;5046467;28;20867;-86
2023/04/08 01:27:58;;;;;;;0.30;0.30;;;6.70;99.90;;;;;;5041483;28;20901;-87
2023/04/08 01:30:25;;;;;;;0.30;0.30;;;6.70;99.90;;;;;;5025321;28;20477;-86
2023/04/08 01:32:55;;;;;;;0.30;0.30;;;6.70;99.90;;;;;;5045160;28;20410;-86
2023/04/08 01:35:21;;;;;;;0.40;0.40;;;6.70;99.90;;;;;;5045168;28;21017;-86
2023/04/08 01:37:49;;;;;;;0.40;0.40;;;6.80;99.90;;;;;;5031265;28;20415;-87
2023/04/08 01:40:17;;;;;;;0.30;0.30;;;6.70;99.90;;;;;;5048295;28;20464;-86
2023/04/08 01:42:44;;;;;;;0.30;0.30;;;6.70;99.90;;;;;;5049527;28;20509;-86
2023/04/08 01:45:11;;;;;;;0.30;0.30;;;6.60;99.90;;;;;;5018975;28;20454;-86
2023/04/08 01:47:38;;;;;;;0.30;0.30;;;6.60;99.90;;;;;;5025331;28;20464;-86
2023/04/08 01:50:05;;;;;;;0.30;0.30;;;6.60;99.90;;;;;;5011934;28;20821;-86
2023/04/08 01:52:33;;;;;;;0.30;0.30;;;6.60;99.90;;;;;;5025481;28;20455;-86
2023/04/08 01:54:59;;;;;;;0.20;0.20;;;6.70;99.90;;;;;;5021033;28;20423;-86
2023/04/08 01:57:30;;;;;;;0.30;0.30;;;6.70;99.90;;;;;;5028215;28;20408;-86
2023/04/08 02:00:04;;;;;;;0.30;0.30;;;6.80;99.90;;;;;;5029047;28;20204;-86
2023/04/08 02:02:32;;;;;;;0.30;0.30;;;6.60;99.90;;;;;;5023460;28;20443;-86
2023/04/08 02:04:57;;;;;;;0.30;0.30;;;6.60;99.90;;;;;;5043572;28;20451;-86
2023/04/08 02:07:23;;;;;;;0.30;0.30;;;6.70;99.90;;;;;;5031707;28;20759;-86
2023/04/08 02:09:49;;;;;;;0.30;0.30;;;6.60;99.90;;;;;;5036982;28;20225;-86
2023/04/08 02:12:15;;;;;;;0.30;0.30;;;6.70;99.90;;;;;;5043029;28;20682;-86
2023/04/08 02:14:41;;;;;;;0.30;0.30;;;6.60;99.90;;;;;;5014871;28;20432;-86
2023/04/08 02:17:27;;;;;;;0.30;0.30;;;6.50;99.90;;;;;;5016809;28;20453;-86
2023/04/08 02:20:18;;;;;;;0.30;0.30;;;6.60;99.90;;;;;;5029812;28;20268;-86
2023/04/08 02:23:04;;;;;;;0.30;0.30;;;6.50;99.90;;;;;;5031545;28;20508;-85
2023/04/08 02:25:36;;;;;;;0.30;0.30;;;6.60;99.90;;;;;;5009328;28;20888;-86
2023/04/08 02:28:05;;;;;;;0.30;0.30;;;6.50;99.90;;;;;;5013784;28;20509;-86
2023/04/08 02:30:32;;;;;;;0.30;0.30;;;6.60;99.90;;;;;;5035920;28;20497;-86
2023/04/08 02:33:02;;;;;;;0.30;0.30;;;6.60;99.90;;;;;;5042935;28;20429;-87
2023/04/08 02:35:28;;;;;;;0.40;0.40;;;6.60;99.90;;;;;;5041035;28;21046;-86
2023/04/08 02:37:53;;;;;;;0.30;0.30;;;6.70;99.90;;;;;;5024547;28;20416;-85
2023/04/08 02:40:23;;;;;;;0.30;0.30;;;6.60;99.90;;;;;;5009978;28;20501;-86
2023/04/08 02:42:49;;;;;;;0.30;0.30;;;6.60;99.90;;;;;;5012547;28;20165;-86
2023/04/08 02:45:14;;;;;;;0.30;0.30;;;6.60;99.90;;;;;;5038787;28;21043;-85
2023/04/08 02:47:40;;;;;;;0.30;0.30;;;6.60;99.90;;;;;;5049649;28;20161;-85
2023/04/08 02:50:06;;;;;;;0.30;0.30;;;6.60;99.90;;;;;;5031437;28;20164;-86
2023/04/08 02:52:31;;;;;;;0.30;0.30;;;6.50;99.90;;;;;;5051180;28;20209;-86
2023/04/08 02:54:57;;;;;;;0.30;0.30;;;6.50;99.90;;;;;;5032570;28;20447;-86
2023/04/08 02:57:22;;;;;;;0.30;0.30;;;6.50;99.90;;;;;;5034375;28;20168;-86
2023/04/08 02:59:48;;;;;;;0.30;0.30;;;6.50;99.90;;;;;;5031500;28;20179;-85
2023/04/08 03:02:13;;;;;;;0.30;0.30;;;6.50;99.90;;;;;;5033628;28;20686;-85
2023/04/08 03:04:39;;;;;;;0.30;0.30;;;6.50;99.90;;;;;;5030134;28;20193;-84
2023/04/08 03:07:05;;;;;;;0.30;0.30;;;6.40;99.90;;;;;;5049393;28;20186;-85
2023/04/08 03:09:30;;;;;;;0.30;0.30;;;6.40;99.90;;;;;;5031287;28;20220;-86
2023/04/08 03:11:56;;;;;;;0.33;0.33;;;6.40;99.90;;;;;;5033560;28;20201;-86
2023/04/08 03:14:21;;;;;;;0.30;0.30;;;6.40;99.90;;;;;;5050778;28;20870;-86
2023/04/08 03:16:47;;;;;;;0.30;0.30;;;6.40;99.90;;;;;;5045841;28;20199;-86
2023/04/08 03:19:13;;;;;;;0.30;0.30;;;6.40;99.90;;;;;;5050915;28;20183;-86
2023/04/08 03:21:38;;;;;;;0.30;0.30;;;6.40;99.90;;;;;;5027556;28;20188;-86
2023/04/08 03:24:04;;;;;;;0.30;0.30;;;6.40;99.90;;;;;;5033633;28;20149;-85
2023/04/08 03:26:30;;;;;;;0.40;0.40;;;6.40;99.90;;;;;;5030138;28;20592;-86
2023/04/08 03:28:55;;;;;;;0.30;0.30;;;6.40;99.90;;;;;;5037443;28;20144;-85
2023/04/08 03:31:21;;;;;;;0.30;0.30;;;6.30;99.90;;;;;;5028353;28;20172;-87
2023/04/08 03:33:46;;;;;;;0.30;0.30;;;6.30;99.90;;;;;;5052040;28;25060;-86
2023/04/08 03:36:12;;;;;;;0.40;0.40;;;6.30;99.90;;;;;;5031800;28;21993;-86
2023/04/08 03:38:37;;;;;;;0.30;0.30;;;6.20;99.90;;;;;;5025629;28;20164;-87
2023/04/08 03:41:03;;;;;;;0.40;0.40;;;6.20;99.90;;;;;;5041696;28;20586;-85
2023/04/08 03:43:28;;;;;;;0.30;0.30;;;6.20;99.90;;;;;;5048477;28;20654;-87
2023/04/08 03:45:55;;;;;;;0.30;0.30;;;6.30;99.90;;;;;;5023666;28;20240;-85
2023/04/08 03:48:20;;;;;;;0.40;0.40;;;6.30;99.90;;;;;;5031201;28;20662;-86
2023/04/08 03:50:46;;;;;;;0.33;0.33;;;6.30;99.90;;;;;;5033633;28;20407;-86
2023/04/08 03:53:11;;;;;;;0.40;0.40;;;6.20;99.90;;;;;;5029746;28;20260;-86
2023/04/08 03:55:37;;;;;;;0.30;0.30;;;6.10;99.90;;;;;;5047414;28;20153;-87
2023/04/08 03:58:03;;;;;;;0.30;0.30;;;6.10;99.90;;;;;;5030716;28;21639;-86
2023/04/08 04:00:29;;;;;;;0.30;0.30;;;6.10;99.90;;;;;;5029453;28;20459;-85
2023/04/08 04:02:55;;;;;;;0.30;0.30;;;6.10;99.90;;;;;;5027138;28;20160;-85
2023/04/08 04:05:20;;;;;;;0.30;0.30;;;6.10;99.90;;;;;;5029471;28;20197;-85
2023/04/08 04:07:46;;;;;;;0.30;0.30;;;6.20;99.90;;;;;;5046604;28;20235;-86
2023/04/08 04:10:11;;;;;;;0.30;0.30;;;6.10;99.90;;;;;;5032103;28;21019;-85
2023/04/08 04:12:37;;;;;;;0.30;0.30;;;6.00;99.90;;;;;;5048108;28;20164;-86
2023/04/08 04:15:03;;;;;;;0.30;0.30;;;6.00;99.90;;;;;;5025904;28;20657;-85
2023/04/08 04:17:29;;;;;;;0.30;0.30;;;6.00;99.90;;;;;;5027603;28;25072;-86
2023/04/08 04:19:55;;;;;;;0.30;0.30;;;5.90;99.90;;;;;;5029829;28;25124;-86
2023/04/08 04:22:20;;;;;;;0.33;0.33;;;6.00;99.90;;;;;;5030577;28;20284;-85
2023/04/08 04:24:47;;;;;;;0.30;0.30;;;6.00;99.90;;;;;;5030990;28;20460;-88
2023/04/08 04:27:13;;;;;;;0.30;0.30;;;6.10;99.90;;;;;;5029964;28;20194;-87
2023/04/08 04:29:39;;;;;;;0.30;0.30;;;6.00;99.90;;;;;;5049536;28;20957;-85
2023/04/08 04:32:05;;;;;;;0.30;0.30;;;6.00;99.90;;;;;;5046768;28;20246;-86
2023/04/08 04:34:31;;;;;;;0.30;0.30;;;6.00;99.90;;;;;;5029129;28;20475;-85
2023/04/08 04:36:56;;;;;;;0.30;0.30;;;6.00;99.90;;;;;;5030274;28;20448;-85
2023/04/08 04:39:22;;;;;;;0.30;0.30;;;5.90;99.90;;;;;;5042470;28;25068;-86
2023/04/08 04:41:48;;;;;;;0.30;0.30;;;6.00;99.90;;;;;;5021961;28;21043;-85
2023/04/08 04:44:13;;;;;;;0.30;0.30;;;6.00;99.90;;;;;;5028640;28;20255;-86
2023/04/08 04:46:39;;;;;;;0.30;0.30;;;5.80;99.90;;;;;;5020557;28;20402;-86
2023/04/08 04:49:05;;;;;;;0.30;0.30;;;5.80;99.90;;;;;;5021232;28;20156;-85
2023/04/08 04:51:32;;;;;;;0.30;0.30;;;5.90;99.90;;;;;;5042579;28;20160;-85
2023/04/08 04:53:57;;;;;;;0.30;0.30;;;5.90;99.90;;;;;;5018967;28;20248;-86
2023/04/08 04:56:24;;;;;;;0.30;0.30;;;5.90;99.90;;;;;;5044548;28;20493;-86
2023/04/08 04:58:49;;;;;;;0.30;0.30;;;5.90;99.90;;;;;;5041946;28;20275;-86
2023/04/08 05:01:15;;;;;;;0.30;0.30;;;5.80;99.90;;;;;;5044239;28;20433;-87
2023/04/08 05:03:40;;;;;;;0.40;0.40;;;5.80;99.90;;;;;;5039255;28;20649;-86
2023/04/08 05:06:06;;;;;;;0.37;0.37;;;5.90;99.90;;;;;;5034232;28;20470;-86
2023/04/08 05:08:31;;;;;;;0.40;0.40;;;5.90;99.90;;;;;;5025143;28;20193;-88
2023/04/08 05:11:00;;;;;;;0.30;0.30;;;5.80;99.90;;;;;;5031472;28;20220;-88
2023/04/08 05:13:29;;;;;;;0.30;0.30;;;5.80;99.90;;;;;;5045586;28;20176;-87
2023/04/08 05:15:55;;;;;;;0.30;0.30;;;5.80;99.90;;;;;;5028054;28;20402;-87
2023/04/08 05:18:20;;;;;;;0.30;0.30;;;5.70;99.90;;;;;;5026347;28;20450;-89
2023/04/08 05:20:46;;;;;;;0.30;0.30;;;5.70;99.90;;;;;;5020237;28;20214;-88
2023/04/08 05:23:11;;;;;;;0.40;0.40;;;5.70;99.90;;;;;;5027241;28;25066;-88
2023/04/08 05:25:37;;;;;;;0.40;0.40;;;5.70;99.90;;;;;;5043979;28;20666;-89
2023/04/08 05:28:03;;;;;;;0.40;0.40;;;5.70;99.90;;;;;;5019696;28;20244;-88
2023/04/08 05:30:28;;;;;;;0.33;0.33;;;5.80;99.90;;;;;;5033208;28;20153;-88
2023/04/08 05:32:54;;;;;;;0.30;0.30;;;5.80;99.90;;;;;;5024482;28;20458;-86
2023/04/08 05:35:20;;;;;;;0.30;0.30;;;5.80;99.90;;;;;;5046345;28;20267;-84
2023/04/08 05:37:45;;;;;;;0.30;0.30;;;5.80;99.90;;;;;;5029735;28;20608;-85
2023/04/08 05:40:11;;;;;;;0.30;0.30;;;5.70;99.90;;;;;;5050309;28;25051;-86
2023/04/08 05:42:36;;;;;;;0.30;0.30;;;5.70;99.90;;;;;;5034727;28;20276;-85
2023/04/08 05:45:02;;;;;;;0.30;0.30;;;5.60;99.90;;;;;;5033477;28;20245;-87
2023/04/08 05:47:27;;;;;;;0.30;0.30;;;5.70;99.90;;;;;;5032231;28;20247;-88
2023/04/08 05:49:53;;;;;;;0.30;0.30;;;5.60;99.90;;;;;;5044489;28;20209;-86
2023/04/08 05:52:19;;;;;;;0.40;0.40;;;5.70;99.90;;;;;;5028058;28;25068;-86
2023/04/08 05:54:45;;;;;;;0.30;0.30;;;5.70;99.90;;;;;;5033561;28;20210;-86
2023/04/08 05:57:11;;;;;;;0.30;0.30;;;5.70;99.90;;;;;;5049649;28;20152;-86
2023/04/08 05:59:36;;;;;;;0.30;0.30;;;5.70;99.90;;;;;;5053417;28;20221;-84
2023/04/08 06:02:02;;;;;;;0.40;0.40;;;5.60;99.90;;;;;;5032904;28;20940;-84
2023/04/08 06:04:27;;;;;;;0.30;0.30;;;5.60;99.90;;;;;;5052228;28;20330;-86
2023/04/08 06:06:53;;;;;;;0.30;0.30;;;5.70;99.90;;;;;;5027231;28;20522;-84
2023/04/08 06:09:18;;;;;;;0.30;0.30;;;5.80;99.90;;;;;;5029508;28;20202;-85
2023/04/08 06:11:46;;;;;;;0.30;0.30;;;5.80;99.90;;;;;;5044288;28;20156;-85
2023/04/08 06:14:11;;;;;;;0.30;0.30;;;5.80;99.90;;;;;;5032693;28;20193;-87
2023/04/08 06:16:37;;;;;;;0.30;0.30;;;5.90;99.90;;;;;;5031672;28;20822;-86
2023/04/08 06:19:02;;;;;;;0.30;0.30;;;5.90;99.90;;;;;;5048155;28;20912;-88
2023/04/08 06:21:28;;;;;;;0.30;0.30;;;5.80;99.90;;;;;;5034834;28;20152;-86
2023/04/08 06:23:53;;;;;;;0.30;0.30;;;5.80;99.90;;;;;;5051716;28;20251;-86
2023/04/08 06:26:19;;;;;;;0.23;0.23;;;5.80;99.90;;;;;;5043519;28;20149;-87
2023/04/08 06:28:44;;;;;;;0.30;0.30;;;5.70;99.90;;;;;;5029030;28;20284;-86
2023/04/08 06:31:10;;;;;;;0.30;0.30;;;5.70;99.90;;;;;;5043870;28;20735;-87
2023/04/08 06:33:36;;;;;;;0.40;0.40;;;5.70;99.90;;;;;;5030161;28;20152;-87
2023/04/08 06:36:03;;;;;;;0.40;0.40;;;5.60;99.90;;;;;;5023179;28;20934;-85
2023/04/08 06:38:29;;;;;;;0.30;0.30;;;5.70;99.90;;;;;;5044757;28;20179;-87
2023/04/08 06:40:55;;;;;;;0.40;0.40;;;5.70;99.90;;;;;;5029499;28;20475;-87
2023/04/08 06:43:24;;;;;;;0.40;0.40;;;5.70;99.90;;;;;;5028055;28;20407;-89
2023/04/08 06:45:50;;;;;;;0.30;0.30;;;5.80;99.90;;;;;;5045146;28;20560;-90
2023/04/08 06:48:16;;;;;;;0.40;0.40;;;5.80;99.90;;;;;;5032392;28;21132;-86
2023/04/08 06:50:42;;;;;;;0.30;0.30;;;5.90;99.90;;;;;;5043282;28;20209;-87
2023/04/08 06:53:08;;;;;;;0.23;0.23;;;5.90;99.90;;;;;;5045660;28;20152;-88
2023/04/08 06:55:33;;;;;;;0.37;0.37;;;5.90;99.90;;;;;;5033356;28;20425;-87
2023/04/08 06:58:00;;;;;;;0.30;0.30;;;6.00;99.90;;;;;;5049166;28;20179;-89
2023/04/08 07:00:26;;;;;;;0.30;0.30;;;6.00;99.90;;;;;;5031019;28;20213;-91
2023/04/08 07:02:51;;;;;;;0.40;0.40;;;5.90;99.90;;;;;;5032050;28;20411;-92
2023/04/08 07:05:17;;;;;;;0.30;0.30;;;5.80;99.90;;;;;;5043514;28;20590;-88
2023/04/08 07:07:43;;;;;;;0.30;0.30;;;5.90;99.90;;;;;;5045340;28;20144;-88
2023/04/08 07:10:09;;;;;;;0.30;0.30;;;6.00;99.90;;;;;;5030184;28;20198;-86
2023/04/08 07:12:34;;;;;;;0.30;0.30;;;6.00;99.90;;;;;;5032386;28;20162;-86
2023/04/08 07:15:00;;;;;;;0.30;0.30;;;6.00;99.90;;;;;;5038914;28;20420;-85
2023/04/08 07:17:25;;;;;;;0.30;0.30;;;6.10;99.90;;;;;;5029915;28;20637;-87
2023/04/08 07:19:51;;;;;;;0.30;0.30;;;6.10;99.90;;;;;;5028719;28;20193;-87
2023/04/08 07:22:17;;;;;;;0.30;0.30;;;6.20;99.90;;;;;;5048050;28;20287;-86
2023/04/08 07:24:48;;;;;;;0.30;0.30;;;6.20;99.90;;;;;;5024074;28;20153;-88
2023/04/08 07:27:15;;;;;;;0.30;0.30;;;6.20;99.90;;;;;;5025692;28;20415;-87
2023/04/08 07:29:41;;;;;;;0.30;0.30;;;6.20;99.90;;;;;;5026378;28;20565;-87
2023/04/08 07:32:06;;;;;;;0.33;0.33;;;6.30;99.90;;;;;;5031331;28;21233;-90
2023/04/08 07:34:36;;;;;;;0.30;0.30;;;6.20;99.90;;;;;;5027414;28;20247;-89
2023/04/08 07:37:02;;;;;;;0.30;0.30;;;6.30;99.90;;;;;;5028231;28;20234;-87
2023/04/08 07:39:28;;;;;;;0.40;0.40;;;6.30;99.90;;;;;;5048727;28;20548;-87
2023/04/08 07:41:53;;;;;;;0.30;0.30;;;6.30;99.90;;;;;;5031481;28;20180;-86
2023/04/08 07:44:19;;;;;;;0.30;0.30;;;6.40;99.90;;;;;;5050081;28;20289;-85
2023/04/08 07:46:48;;;;;;;0.30;0.30;;;6.40;99.90;;;;;;5047931;28;20152;-86
2023/04/08 07:49:13;;;;;;;0.30;0.30;;;6.40;99.90;;;;;;5030599;28;20655;-88
2023/04/08 07:51:39;;;;;;;0.30;0.30;;;6.40;99.90;;;;;;5032938;28;20419;-89
2023/04/08 07:54:04;;;;;;;0.30;0.30;;;6.50;99.90;;;;;;5032752;28;20247;-87
2023/04/08 07:56:30;;;;;;;0.30;0.30;;;6.60;99.90;;;;;;5033804;28;20651;-89
2023/04/08 07:58:55;;;;;;;0.30;0.30;;;6.60;99.90;;;;;;5048913;28;20266;-90
2023/04/08 08:01:22;;;;;;;0.30;0.30;;;6.70;99.90;;;;;;5049712;28;20202;-89
2023/04/08 08:03:48;;;;;;;0.30;0.30;;;6.60;99.90;;;;;;5033349;28;20205;-89
2023/04/08 08:06:14;;;;;;;0.30;0.30;;;6.70;99.90;;;;;;5052002;28;20456;-89
2023/04/08 08:08:40;;;;;;;0.30;0.30;;;6.80;99.90;;;;;;5051008;28;20455;-89
2023/04/08 08:11:05;;;;;;;0.30;0.30;;;6.70;99.90;;;;;;5034177;28;20426;-90
2023/04/08 08:13:32;;;;;;;0.30;0.30;;;6.90;99.90;;;;;;5033621;28;20157;-89
2023/04/08 08:15:58;;;;;;;0.30;0.30;;;7.10;99.90;;;;;;5026151;28;20523;-88
2023/04/08 08:18:23;;;;;;;0.30;0.30;;;7.10;99.90;;;;;;5032512;28;20419;-89
2023/04/08 08:20:49;;;;;;;0.30;0.30;;;7.20;99.90;;;;;;5031906;28;20172;-88
2023/04/08 08:23:15;;;;;;;0.30;0.30;;;7.10;99.90;;;;;;5035348;28;20171;-88
2023/04/08 08:25:40;;;;;;;0.30;0.30;;;7.10;99.90;;;;;;5048873;28;20187;-89
2023/04/08 08:28:06;;;;;;;0.30;0.30;;;7.00;99.90;;;;;;5031719;28;20461;-89
2023/04/08 08:30:32;;;;;;;0.30;0.30;;;6.90;99.90;;;;;;5031562;28;20210;-88
2023/04/08 08:33:00;;;;;;;0.30;0.30;;;6.80;99.90;;;;;;5032969;28;20640;-88
2023/04/08 08:35:26;;;;;;;0.30;0.30;;;6.80;99.90;;;;;;5032895;28;20198;-90
2023/04/08 08:37:51;;;;;;;0.20;0.20;;;6.80;99.90;;;;;;5030634;28;20431;-89
2023/04/08 08:40:18;;;;;;;0.30;0.30;;;7.00;99.90;;;;;;5033407;28;20615;-89
2023/04/08 08:42:53;;;;;;;0.30;0.30;;;7.00;99.90;;;;;;5030487;28;20492;-88
2023/04/08 08:45:19;;;;;;;0.30;0.30;;;7.00;99.90;;;;;;5031250;28;20329;-88
2023/04/08 08:47:45;;;;;;;0.30;0.30;;;7.20;99.90;;;;;;5028189;28;20411;-90
2023/04/08 08:50:11;;;;;;;0.20;0.20;;;7.30;99.90;;;;;;5030024;28;20426;-88
2023/04/08 08:52:37;;;;;;;0.30;0.30;;;7.40;99.90;;;;;;5028612;28;20222;-86
2023/04/08 08:55:02;;;;;;;0.30;0.30;;;7.50;99.90;;;;;;5027595;28;20628;-87
2023/04/08 08:57:28;;;;;;;0.20;0.20;;;7.50;99.90;;;;;;5029199;28;20680;-87
2023/04/08 08:59:53;;;;;;;0.30;0.30;;;7.60;99.90;;;;;;5025178;28;20691;-88
2023/04/08 09:02:28;;;;;;;0.30;0.30;;;7.60;99.90;;;;;;5031188;28;20156;-86
2023/04/08 09:05:04;;;;;;;0.30;0.30;;;7.70;99.90;;;;;;5032453;28;20172;-88
2023/04/08 09:07:33;;;;;;;0.20;0.20;;;7.80;99.90;;;;;;5049451;28;20394;-87
2023/04/08 09:09:59;;;;;;;0.20;0.20;;;7.70;99.90;;;;;;5030027;28;20420;-87
2023/04/08 09:12:30;;;;;;;0.30;0.30;;;8.00;99.90;;;;;;5029563;28;20894;-87
2023/04/08 09:15:06;;;;;;;0.30;0.30;;;8.00;99.90;;;;;;5047263;28;20219;-88
2023/04/08 09:17:40;;;;;;;0.20;0.20;;;8.10;99.90;;;;;;5031668;28;20419;-87
2023/04/08 09:20:11;;;;;;;0.20;0.20;;;8.20;99.90;;;;;;5037619;28;20454;-87
2023/04/08 09:22:58;;;;;;;0.23;0.23;;;8.40;99.90;;;;;;5028549;28;20405;-89
2023/04/08 09:25:28;;;;;;;0.30;0.30;;;8.00;99.90;;;;;;5027214;28;20471;-87
2023/04/08 09:27:54;;;;;;;0.30;0.30;;;7.90;99.90;;;;;;5028045;28;20782;-88
2023/04/08 09:30:22;;;;;;;0.30;0.30;;;8.00;99.90;;;;;;5028599;28;20431;-89
2023/04/08 09:32:55;;;;;;;0.23;0.23;;;7.80;99.90;;;;;;5025629;28;20173;-86
2023/04/08 09:35:22;;;;;;;0.30;0.30;;;7.50;99.90;;;;;;5031066;28;20463;-87
2023/04/08 09:37:49;;;;;;;0.30;0.30;;;7.50;99.90;;;;;;5043211;28;20427;-86
2023/04/08 09:40:16;;;;;;;0.30;0.30;;;7.50;99.90;;;;;;5013180;28;20463;-86
2023/04/08 09:42:51;;;;;;;0.23;0.23;;;7.50;99.90;;;;;;5022821;28;20433;-85
2023/04/08 09:45:17;;;;;;;0.30;0.30;;;7.50;99.90;;;;;;5044568;28;20454;-86
2023/04/08 09:47:57;;;;;;;0.30;0.30;;;7.60;99.90;;;;;;5043373;28;20465;-86
2023/04/08 09:50:27;;;;;;;0.30;0.30;;;7.70;99.90;;;;;;5046107;28;20471;-87
2023/04/08 09:53:00;;;;;;;0.27;0.27;;;7.80;99.90;;;;;;5026057;28;20420;-87
2023/04/08 09:55:28;;;;;;;0.20;0.20;;;7.70;99.90;;;;;;5029145;28;20475;-85
2023/04/08 09:57:58;;;;;;;0.30;0.30;;;7.80;99.90;;;;;;5048998;28;20419;-86
2023/04/08 10:00:31;;;;;;;0.30;0.30;;;7.90;99.90;;;;;;5026364;28;20461;-85
2023/04/08 10:03:15;;;;;;;0.20;0.20;;;7.90;99.90;;;;;;5025001;28;20896;-86
2023/04/08 10:05:43;;;;;;;0.20;0.20;;;7.80;99.90;;;;;;5021443;28;20930;-86
2023/04/08 10:08:09;;;;;;;0.20;0.20;;;8.00;99.90;;;;;;5041372;28;20465;-84
2023/04/08 10:10:35;;;;;;;0.20;0.20;;;8.10;99.90;;;;;;5024629;28;20428;-86
2023/04/08 10:13:02;;;;;;;0.20;0.20;;;8.30;99.90;;;;;;5047092;28;20156;-86
2023/04/08 10:15:36;;;;;;;0.20;0.20;;;8.40;99.90;;;;;;5030968;28;20410;-87
2023/04/08 10:18:05;;;;;;;0.20;0.20;;;8.30;99.90;;;;;;5032697;28;20434;-87
2023/04/08 10:20:33;;;;;;;0.27;0.27;;;8.20;99.90;;;;;;5028082;28;20454;-86
2023/04/08 10:23:04;;;;;;;0.30;0.30;;;8.20;99.90;;;;;;5028462;28;20837;-86
2023/04/08 10:25:37;;;;;;;0.30;0.30;;;8.00;99.90;;;;;;5050231;28;20455;-85
2023/04/08 10:28:16;;;;;;;0.20;0.20;;;8.00;99.90;;;;;;5021450;28;20421;-88
2023/04/08 10:30:42;;;;;;;0.20;0.20;;;7.90;99.90;;;;;;5030316;28;20903;-87
2023/04/08 10:33:16;;;;;;;0.20;0.20;;;8.10;99.90;;;;;;5033671;28;20407;-87
2023/04/08 10:35:47;;;;;;;0.20;0.20;;;8.20;99.90;;;;;;5048691;28;20486;-89
2023/04/08 10:38:14;;;;;;;0.20;0.20;;;8.40;99.90;;;;;;5031303;28;20419;-87
2023/04/08 10:40:41;;;;;;;0.30;0.30;;;8.40;99.90;;;;;;5031398;28;20942;-86
2023/04/08 10:43:11;;;;;;;0.23;0.23;;;8.30;99.90;;;;;;5027089;28;20694;-87
2023/04/08 10:45:37;;;;;;;0.20;0.20;;;8.30;99.90;;;;;;5047699;28;20980;-87
2023/04/08 10:48:28;;;;;;;0.20;0.20;;;8.30;99.90;;;;;;5048366;28;21189;-89
2023/04/08 10:51:03;;;;;;;0.20;0.20;;;8.10;99.90;;;;;;5031690;28;20416;-89
2023/04/08 10:53:34;;;;;;;0.20;0.20;;;8.10;99.90;;;;;;5016259;28;20947;-90
2023/04/08 10:56:17;;;;;;;0.20;0.20;;;8.30;99.90;;;;;;5054440;28;20411;-92
2023/04/08 10:58:51;;;;;;;0.20;0.20;;;8.20;99.90;;;;;;5033090;28;21300;-91
2023/04/08 11:01:17;;;;;;;0.30;0.30;;;8.20;99.90;;;;;;5049370;28;20399;-92
2023/04/08 11:03:43;;;;;;;0.30;0.30;;;8.40;99.90;;;;;;5042915;28;20419;-92
2023/04/08 11:06:08;;;;;;;0.20;0.20;;;8.60;99.90;;;;;;5033530;28;20563;-91
2023/04/08 11:08:38;;;;;;;0.20;0.20;;;8.60;99.90;;;;;;5040253;28;20478;-91
2023/04/08 11:11:09;;;;;;;0.20;0.20;;;8.60;99.90;;;;;;5037250;28;20152;-93
2023/04/08 11:13:36;;;;;;;0.20;0.20;;;8.70;99.90;;;;;;5035694;28;20489;-91
2023/04/08 11:16:03;;;;;;;0.20;0.20;;;8.60;99.90;;;;;;5032363;28;20420;-90
2023/04/08 11:18:30;;;;;;;0.20;0.20;;;8.70;99.90;;;;;;5044122;28;20415;-91
2023/04/08 11:20:57;;;;;;;0.20;0.20;;;8.70;99.90;;;;;;5033384;28;20790;-92
2023/04/08 11:23:24;;;;;;;0.20;0.20;;;8.80;99.90;;;;;;5033616;28;20413;-91
2023/04/08 11:25:50;;;;;;;0.20;0.20;;;8.80;99.90;;;;;;5050954;28;20480;-91
2023/04/08 11:28:16;;;;;;;0.20;0.20;;;8.90;99.90;;;;;;5033022;28;20804;-89
2023/04/08 11:30:42;;;;;;;0.20;0.20;;;8.90;99.90;;;;;;5028543;28;20426;-91
2023/04/08 11:33:08;;;;;;;0.20;0.20;;;9.00;99.90;;;;;;5044825;28;20157;-89
2023/04/08 11:35:38;;;;;;;0.20;0.20;;;9.10;99.90;;;;;;5030220;28;20422;-91
2023/04/08 11:38:04;;;;;;;0.20;0.20;;;8.90;99.90;;;;;;5030359;28;20184;-92
2023/04/08 11:40:29;;;;;;;0.20;0.20;;;8.90;99.90;;;;;;5034632;28;20462;-90
2023/04/08 11:42:55;;;;;;;0.20;0.20;;;8.90;99.90;;;;;;5033382;28;20469;-89
2023/04/08 11:45:21;;;;;;;0.20;0.20;;;8.90;99.90;;;;;;5032931;28;20287;-89
2023/04/08 11:47:47;;;;;;;0.20;0.20;;;9.10;99.90;;;;;;5053951;28;20597;-90
2023/04/08 11:50:24;;;;;;;0.20;0.20;;;9.10;99.90;;;;;;5050843;28;20161;-90
2023/04/08 11:52:51;;;;;;;0.20;0.20;;;9.20;99.90;;;;;;5032068;28;20411;-90
2023/04/08 11:55:26;;;;;;;0.20;0.20;;;9.20;99.90;;;;;;5041526;28;20502;-91
2023/04/08 11:57:52;;;;;;;0.20;0.20;;;9.20;99.90;;;;;;5052362;28;20410;-90
2023/04/08 12:00:22;;;;;;;0.20;0.20;;;9.20;99.90;;;;;;5050704;28;20798;-90
2023/04/08 12:02:48;;;;;;;0.20;0.20;;;9.30;99.90;;;;;;5051522;28;20454;-90
2023/04/08 12:05:17;;;;;;;0.20;0.20;;;9.50;99.90;;;;;;5024697;28;20498;-87
2023/04/08 12:07:43;;;;;;;0.20;0.20;;;9.80;99.90;;;;;;5034442;28;20430;-86
2023/04/08 12:10:10;;;;;;;0.20;0.20;;;;;;;;;;5043268;28;20430;-87
2023/04/08 12:12:36;;;;;;;0.20;0.20;;;10.60;99.90;;;;;;5051507;28;20428;-86
2023/04/08 12:15:02;;;;;;;0.20;0.20;;;10.60;99.90;;;;;;5027952;28;20466;-86
2023/04/08 12:17:28;;;;;;;0.20;0.20;;;10.50;99.90;;;;;;5048022;28;20403;-87
2023/04/08 12:19:53;;;;;;;0.20;0.20;;;10.30;99.90;;;;;;5030975;28;20454;-87
2023/04/08 12:22:19;;;;;;;0.20;0.20;;;10.10;99.90;;;;;;5048287;28;20149;-85
2023/04/08 12:24:45;;;;;;;0.20;0.20;;;9.70;99.90;;;;;;5030299;28;20156;-87
2023/04/08 12:27:10;;;;;;;0.20;0.20;;;9.60;99.90;;;;;;5050730;28;20418;-85
2023/04/08 12:29:36;;;;;;;0.20;0.20;;;9.60;99.90;;;;;;5051047;28;20152;-85
2023/04/08 12:32:03;;;;;;;0.20;0.20;;;9.90;99.90;;;;;;5047266;28;20509;-88
2023/04/08 12:34:28;;;;;;;0.20;0.20;;;10.50;99.90;;;;;;5032630;28;20217;-87
2023/04/08 12:36:54;;;;;;;0.10;0.10;;;;;;;;;;5049735;28;25142;-87
2023/04/08 12:39:21;;;;;;;0.10;0.10;;;11.50;99.90;;;;;;5026044;28;20242;-88
2023/04/08 12:41:46;;;;;;;0.10;0.10;;;11.30;99.90;;;;;;5033683;28;25095;-88
2023/04/08 12:44:13;;;;;;;0.10;0.10;;;;;;;;;;5049405;28;20423;-88
2023/04/08 12:46:39;;;;;;;0.10;0.10;;;12.30;99.90;;;;;;5033769;28;20164;-86
2023/04/08 12:49:05;;;;;;;0.10;0.10;;;12.30;99.90;;;;;;5034146;28;20415;-87
2023/04/08 12:51:31;;;;;;;0.10;0.10;;;12.40;99.90;;;;;;5052208;28;25088;-87
2023/04/08 12:53:56;;;;;;;0.10;0.10;;;12.20;99.90;;;;;;5031341;28;25076;-88
2023/04/08 12:56:22;;;;;;;0.10;0.10;;;12.10;99.90;;;;;;5031184;28;25139;-87
2023/04/08 12:58:47;;;;;;;0.10;0.10;;;12.80;99.90;;;;;;5029848;28;20176;-88